X  Κλείσε Στοιχεία αεροπορικών μετεωρολογικών δεδομένων METAR     EHKD De Kooy Airport
θερμοκρασία
10°C θερμοκρασία
6°C Σημείο δρόσου
76% Υγρασία



Ανεμος
14 MPH
23 KM/H
6 M/S
12 KTS



340°
VVD
Τρέχουσες συνθήκες

Μερικώς συννεφιασμένος Μερικώς συννεφιασμένος
πίεση 1002.03 (hPa) - 29.59 (inHg)
Ορατότητα 6 (μίλι) - 9.7 (km)
Aεροδρόμιο
Κωδικός αεροδρομίου EHKD

Τοποθεσία: De Kooy Airport
Απόσταση: 34 (mi)

Metar:
EHKD 161006Z AUTO 34012G22KT 300V030 9999 FEW018 SCT035 OVC110 10/06 Q1002 BLU TEMPO 4000 SHRA FEW010 SCT015CB BKN020

ώρα: 16-04-2024 12:06 CEST